sensor_id;sensor_type;location;lat;lon;timestamp;P1;durP1;ratioP1;P2;durP2;ratioP2
69841;SDS011;57138;51.326;-0.068;2023-12-20T00:01:37;0.10;;;0.10;;
69841;SDS011;57138;51.326;-0.068;2023-12-20T00:04:02;0.10;;;0.10;;
69841;SDS011;57138;51.326;-0.068;2023-12-20T00:06:28;0.10;;;0.10;;
69841;SDS011;57138;51.326;-0.068;2023-12-20T00:08:54;0.13;;;0.13;;
69841;SDS011;57138;51.326;-0.068;2023-12-20T00:11:20;0.10;;;0.10;;
69841;SDS011;57138;51.326;-0.068;2023-12-20T00:13:45;0.10;;;0.10;;
69841;SDS011;57138;51.326;-0.068;2023-12-20T00:16:11;0.10;;;0.10;;
69841;SDS011;57138;51.326;-0.068;2023-12-20T00:18:40;0.10;;;0.10;;
69841;SDS011;57138;51.326;-0.068;2023-12-20T00:21:05;0.10;;;0.10;;
69841;SDS011;57138;51.326;-0.068;2023-12-20T00:23:30;0.10;;;0.10;;
69841;SDS011;57138;51.326;-0.068;2023-12-20T00:25:56;0.10;;;0.10;;
69841;SDS011;57138;51.326;-0.068;2023-12-20T00:28:23;0.10;;;0.10;;
69841;SDS011;57138;51.326;-0.068;2023-12-20T00:30:48;0.10;;;0.10;;
69841;SDS011;57138;51.326;-0.068;2023-12-20T00:33:15;0.10;;;0.10;;
69841;SDS011;57138;51.326;-0.068;2023-12-20T00:35:40;0.10;;;0.10;;
69841;SDS011;57138;51.326;-0.068;2023-12-20T00:38:06;0.10;;;0.10;;
69841;SDS011;57138;51.326;-0.068;2023-12-20T00:40:34;0.10;;;0.10;;
69841;SDS011;57138;51.326;-0.068;2023-12-20T00:43:00;0.10;;;0.10;;
69841;SDS011;57138;51.326;-0.068;2023-12-20T00:45:25;0.10;;;0.10;;
69841;SDS011;57138;51.326;-0.068;2023-12-20T00:47:51;0.10;;;0.10;;
69841;SDS011;57138;51.326;-0.068;2023-12-20T00:50:16;0.10;;;0.10;;
69841;SDS011;57138;51.326;-0.068;2023-12-20T00:52:42;1.85;;;1.75;;
69841;SDS011;57138;51.326;-0.068;2023-12-20T00:55:10;0.10;;;0.10;;
69841;SDS011;57138;51.326;-0.068;2023-12-20T00:57:36;0.10;;;0.10;;
69841;SDS011;57138;51.326;-0.068;2023-12-20T01:00:03;0.10;;;0.10;;
69841;SDS011;57138;51.326;-0.068;2023-12-20T01:02:28;0.10;;;0.10;;
69841;SDS011;57138;51.326;-0.068;2023-12-20T01:04:54;0.10;;;0.10;;
69841;SDS011;57138;51.326;-0.068;2023-12-20T01:07:20;0.10;;;0.10;;
69841;SDS011;57138;51.326;-0.068;2023-12-20T01:09:46;0.10;;;0.10;;
69841;SDS011;57138;51.326;-0.068;2023-12-20T01:12:12;0.10;;;0.10;;
69841;SDS011;57138;51.326;-0.068;2023-12-20T01:14:38;0.10;;;0.10;;
69841;SDS011;57138;51.326;-0.068;2023-12-20T01:17:05;3.03;;;1.75;;
69841;SDS011;57138;51.326;-0.068;2023-12-20T01:19:30;0.10;;;0.10;;
69841;SDS011;57138;51.326;-0.068;2023-12-20T01:21:56;0.10;;;0.10;;
69841;SDS011;57138;51.326;-0.068;2023-12-20T01:24:21;0.10;;;0.10;;
69841;SDS011;57138;51.326;-0.068;2023-12-20T01:26:48;0.10;;;0.10;;
69841;SDS011;57138;51.326;-0.068;2023-12-20T01:29:14;0.10;;;0.10;;
69841;SDS011;57138;51.326;-0.068;2023-12-20T01:31:41;0.10;;;0.10;;
69841;SDS011;57138;51.326;-0.068;2023-12-20T01:34:06;0.10;;;0.10;;
69841;SDS011;57138;51.326;-0.068;2023-12-20T01:36:32;0.10;;;0.10;;
69841;SDS011;57138;51.326;-0.068;2023-12-20T01:38:57;0.10;;;0.10;;
69841;SDS011;57138;51.326;-0.068;2023-12-20T01:41:23;0.10;;;0.10;;
69841;SDS011;57138;51.326;-0.068;2023-12-20T01:43:48;0.10;;;0.10;;
69841;SDS011;57138;51.326;-0.068;2023-12-20T01:46:14;0.10;;;0.10;;
69841;SDS011;57138;51.326;-0.068;2023-12-20T01:48:41;0.10;;;0.10;;
69841;SDS011;57138;51.326;-0.068;2023-12-20T01:51:09;0.10;;;0.10;;
69841;SDS011;57138;51.326;-0.068;2023-12-20T01:53:37;0.10;;;0.10;;
69841;SDS011;57138;51.326;-0.068;2023-12-20T01:56:04;0.10;;;0.10;;
69841;SDS011;57138;51.326;-0.068;2023-12-20T01:58:30;0.10;;;0.10;;
69841;SDS011;57138;51.326;-0.068;2023-12-20T02:00:56;0.17;;;0.17;;
69841;SDS011;57138;51.326;-0.068;2023-12-20T02:03:22;0.10;;;0.10;;
69841;SDS011;57138;51.326;-0.068;2023-12-20T02:05:48;0.10;;;0.10;;
69841;SDS011;57138;51.326;-0.068;2023-12-20T02:08:14;0.10;;;0.10;;
69841;SDS011;57138;51.326;-0.068;2023-12-20T02:10:39;0.10;;;0.10;;
69841;SDS011;57138;51.326;-0.068;2023-12-20T02:13:05;0.10;;;0.10;;
69841;SDS011;57138;51.326;-0.068;2023-12-20T02:15:32;0.10;;;0.10;;
69841;SDS011;57138;51.326;-0.068;2023-12-20T02:17:58;0.10;;;0.10;;
69841;SDS011;57138;51.326;-0.068;2023-12-20T02:20:25;0.10;;;0.10;;
69841;SDS011;57138;51.326;-0.068;2023-12-20T02:22:50;0.10;;;0.10;;
69841;SDS011;57138;51.326;-0.068;2023-12-20T02:25:16;0.10;;;0.10;;
69841;SDS011;57138;51.326;-0.068;2023-12-20T02:27:41;0.10;;;0.10;;
69841;SDS011;57138;51.326;-0.068;2023-12-20T02:30:07;0.10;;;0.10;;
69841;SDS011;57138;51.326;-0.068;2023-12-20T02:32:33;0.10;;;0.10;;
69841;SDS011;57138;51.326;-0.068;2023-12-20T02:34:59;0.10;;;0.10;;
69841;SDS011;57138;51.326;-0.068;2023-12-20T02:37:24;0.10;;;0.10;;
69841;SDS011;57138;51.326;-0.068;2023-12-20T02:39:49;0.10;;;0.10;;
69841;SDS011;57138;51.326;-0.068;2023-12-20T02:42:15;0.10;;;0.10;;
69841;SDS011;57138;51.326;-0.068;2023-12-20T02:44:40;0.10;;;0.10;;
69841;SDS011;57138;51.326;-0.068;2023-12-20T02:47:06;0.10;;;0.10;;
69841;SDS011;57138;51.326;-0.068;2023-12-20T02:49:32;0.10;;;0.10;;
69841;SDS011;57138;51.326;-0.068;2023-12-20T02:51:58;0.10;;;0.10;;
69841;SDS011;57138;51.326;-0.068;2023-12-20T02:54:23;0.10;;;0.10;;
69841;SDS011;57138;51.326;-0.068;2023-12-20T02:56:49;0.10;;;0.10;;
69841;SDS011;57138;51.326;-0.068;2023-12-20T02:59:14;0.10;;;0.10;;
69841;SDS011;57138;51.326;-0.068;2023-12-20T03:01:41;0.10;;;0.10;;
69841;SDS011;57138;51.326;-0.068;2023-12-20T03:04:09;0.10;;;0.10;;
69841;SDS011;57138;51.326;-0.068;2023-12-20T03:06:34;0.10;;;0.10;;
69841;SDS011;57138;51.326;-0.068;2023-12-20T03:09:00;0.10;;;0.10;;
69841;SDS011;57138;51.326;-0.068;2023-12-20T03:11:28;0.10;;;0.10;;
69841;SDS011;57138;51.326;-0.068;2023-12-20T03:13:54;0.10;;;0.10;;
69841;SDS011;57138;51.326;-0.068;2023-12-20T03:16:20;0.10;;;0.10;;
69841;SDS011;57138;51.326;-0.068;2023-12-20T03:18:46;4.95;;;0.82;;
69841;SDS011;57138;51.326;-0.068;2023-12-20T03:21:11;0.10;;;0.10;;
69841;SDS011;57138;51.326;-0.068;2023-12-20T03:23:36;0.10;;;0.10;;
69841;SDS011;57138;51.326;-0.068;2023-12-20T03:26:02;0.10;;;0.10;;
69841;SDS011;57138;51.326;-0.068;2023-12-20T03:28:28;0.10;;;0.10;;
69841;SDS011;57138;51.326;-0.068;2023-12-20T03:30:54;0.10;;;0.10;;
69841;SDS011;57138;51.326;-0.068;2023-12-20T03:33:19;0.10;;;0.10;;
69841;SDS011;57138;51.326;-0.068;2023-12-20T03:35:45;0.10;;;0.10;;
69841;SDS011;57138;51.326;-0.068;2023-12-20T03:38:10;0.10;;;0.10;;
69841;SDS011;57138;51.326;-0.068;2023-12-20T03:40:36;0.10;;;0.10;;
69841;SDS011;57138;51.326;-0.068;2023-12-20T03:43:01;0.10;;;0.10;;
69841;SDS011;57138;51.326;-0.068;2023-12-20T03:45:29;0.10;;;0.10;;
69841;SDS011;57138;51.326;-0.068;2023-12-20T03:47:54;0.10;;;0.10;;
69841;SDS011;57138;51.326;-0.068;2023-12-20T03:50:24;0.10;;;0.10;;
69841;SDS011;57138;51.326;-0.068;2023-12-20T03:52:50;0.10;;;0.10;;
69841;SDS011;57138;51.326;-0.068;2023-12-20T03:55:16;0.10;;;0.10;;
69841;SDS011;57138;51.326;-0.068;2023-12-20T03:57:42;0.10;;;0.10;;
69841;SDS011;57138;51.326;-0.068;2023-12-20T04:00:07;0.10;;;0.10;;
69841;SDS011;57138;51.326;-0.068;2023-12-20T04:02:39;0.10;;;0.10;;
69841;SDS011;57138;51.326;-0.068;2023-12-20T04:05:06;0.10;;;0.10;;
69841;SDS011;57138;51.326;-0.068;2023-12-20T04:07:32;0.10;;;0.10;;
69841;SDS011;57138;51.326;-0.068;2023-12-20T04:09:58;0.10;;;0.10;;
69841;SDS011;57138;51.326;-0.068;2023-12-20T04:12:23;0.10;;;0.10;;
69841;SDS011;57138;51.326;-0.068;2023-12-20T04:14:49;0.10;;;0.10;;
69841;SDS011;57138;51.326;-0.068;2023-12-20T04:17:15;0.10;;;0.10;;
69841;SDS011;57138;51.326;-0.068;2023-12-20T04:19:41;0.10;;;0.10;;
69841;SDS011;57138;51.326;-0.068;2023-12-20T04:22:07;0.17;;;0.17;;
69841;SDS011;57138;51.326;-0.068;2023-12-20T04:24:32;0.10;;;0.10;;
69841;SDS011;57138;51.326;-0.068;2023-12-20T04:26:57;0.20;;;0.20;;
69841;SDS011;57138;51.326;-0.068;2023-12-20T04:29:23;0.10;;;0.10;;
69841;SDS011;57138;51.326;-0.068;2023-12-20T04:31:48;0.10;;;0.10;;
69841;SDS011;57138;51.326;-0.068;2023-12-20T04:34:16;0.10;;;0.10;;
69841;SDS011;57138;51.326;-0.068;2023-12-20T04:36:44;0.10;;;0.10;;
69841;SDS011;57138;51.326;-0.068;2023-12-20T04:39:13;0.10;;;0.10;;
69841;SDS011;57138;51.326;-0.068;2023-12-20T04:41:42;0.10;;;0.10;;
69841;SDS011;57138;51.326;-0.068;2023-12-20T04:44:07;0.10;;;0.10;;
69841;SDS011;57138;51.326;-0.068;2023-12-20T04:46:33;0.10;;;0.10;;
69841;SDS011;57138;51.326;-0.068;2023-12-20T04:48:58;0.10;;;0.10;;
69841;SDS011;57138;51.326;-0.068;2023-12-20T04:51:23;1.02;;;0.95;;
69841;SDS011;57138;51.326;-0.068;2023-12-20T04:53:49;0.10;;;0.10;;
69841;SDS011;57138;51.326;-0.068;2023-12-20T04:56:14;0.10;;;0.10;;
69841;SDS011;57138;51.326;-0.068;2023-12-20T04:58:40;0.10;;;0.10;;
69841;SDS011;57138;51.326;-0.068;2023-12-20T05:01:06;0.10;;;0.10;;
69841;SDS011;57138;51.326;-0.068;2023-12-20T05:03:33;0.10;;;0.10;;
69841;SDS011;57138;51.326;-0.068;2023-12-20T05:05:58;0.10;;;0.10;;
69841;SDS011;57138;51.326;-0.068;2023-12-20T05:08:24;0.10;;;0.10;;
69841;SDS011;57138;51.326;-0.068;2023-12-20T05:10:50;0.10;;;0.10;;
69841;SDS011;57138;51.326;-0.068;2023-12-20T05:13:16;0.85;;;0.85;;
69841;SDS011;57138;51.326;-0.068;2023-12-20T05:15:42;0.10;;;0.10;;
69841;SDS011;57138;51.326;-0.068;2023-12-20T05:18:07;0.10;;;0.10;;
69841;SDS011;57138;51.326;-0.068;2023-12-20T05:20:33;0.10;;;0.10;;
69841;SDS011;57138;51.326;-0.068;2023-12-20T05:22:58;0.10;;;0.10;;
69841;SDS011;57138;51.326;-0.068;2023-12-20T05:25:23;0.17;;;0.17;;
69841;SDS011;57138;51.326;-0.068;2023-12-20T05:27:49;0.73;;;0.73;;
69841;SDS011;57138;51.326;-0.068;2023-12-20T05:30:14;34.75;;;3.15;;
69841;SDS011;57138;51.326;-0.068;2023-12-20T05:32:40;22.75;;;3.45;;
69841;SDS011;57138;51.326;-0.068;2023-12-20T05:35:05;21.08;;;2.40;;
69841;SDS011;57138;51.326;-0.068;2023-12-20T05:37:31;27.05;;;2.88;;
69841;SDS011;57138;51.326;-0.068;2023-12-20T05:39:56;36.45;;;3.50;;
69841;SDS011;57138;51.326;-0.068;2023-12-20T05:42:21;19.50;;;3.03;;
69841;SDS011;57138;51.326;-0.068;2023-12-20T05:44:47;28.35;;;3.38;;
69841;SDS011;57138;51.326;-0.068;2023-12-20T05:47:12;22.48;;;3.20;;
69841;SDS011;57138;51.326;-0.068;2023-12-20T05:49:38;18.63;;;3.90;;
69841;SDS011;57138;51.326;-0.068;2023-12-20T05:52:04;25.25;;;3.03;;
69841;SDS011;57138;51.326;-0.068;2023-12-20T05:54:31;26.02;;;3.05;;
69841;SDS011;57138;51.326;-0.068;2023-12-20T05:56:56;23.60;;;3.75;;
69841;SDS011;57138;51.326;-0.068;2023-12-20T05:59:22;19.38;;;2.70;;
69841;SDS011;57138;51.326;-0.068;2023-12-20T06:01:47;21.80;;;2.58;;
69841;SDS011;57138;51.326;-0.068;2023-12-20T06:04:13;31.83;;;3.92;;
69841;SDS011;57138;51.326;-0.068;2023-12-20T06:06:42;21.88;;;3.20;;
69841;SDS011;57138;51.326;-0.068;2023-12-20T06:09:07;17.90;;;2.58;;
69841;SDS011;57138;51.326;-0.068;2023-12-20T06:11:33;19.50;;;2.60;;
69841;SDS011;57138;51.326;-0.068;2023-12-20T06:13:58;23.75;;;3.83;;
69841;SDS011;57138;51.326;-0.068;2023-12-20T06:16:24;31.75;;;4.32;;
69841;SDS011;57138;51.326;-0.068;2023-12-20T06:18:50;28.73;;;3.17;;
69841;SDS011;57138;51.326;-0.068;2023-12-20T06:21:16;23.27;;;3.28;;
69841;SDS011;57138;51.326;-0.068;2023-12-20T06:23:41;23.80;;;2.45;;
69841;SDS011;57138;51.326;-0.068;2023-12-20T06:26:07;22.10;;;3.25;;
69841;SDS011;57138;51.326;-0.068;2023-12-20T06:28:32;26.42;;;2.55;;
69841;SDS011;57138;51.326;-0.068;2023-12-20T06:30:58;22.05;;;3.08;;
69841;SDS011;57138;51.326;-0.068;2023-12-20T06:33:24;22.48;;;2.67;;
69841;SDS011;57138;51.326;-0.068;2023-12-20T06:35:49;34.33;;;3.22;;
69841;SDS011;57138;51.326;-0.068;2023-12-20T06:38:15;28.48;;;4.85;;
69841;SDS011;57138;51.326;-0.068;2023-12-20T06:40:42;21.88;;;3.35;;
69841;SDS011;57138;51.326;-0.068;2023-12-20T06:43:09;22.42;;;3.10;;
69841;SDS011;57138;51.326;-0.068;2023-12-20T06:45:35;23.92;;;2.30;;
69841;SDS011;57138;51.326;-0.068;2023-12-20T06:48:00;26.02;;;3.53;;
69841;SDS011;57138;51.326;-0.068;2023-12-20T06:50:26;22.85;;;2.38;;
69841;SDS011;57138;51.326;-0.068;2023-12-20T06:52:52;25.05;;;3.22;;
69841;SDS011;57138;51.326;-0.068;2023-12-20T06:55:18;25.95;;;3.30;;
69841;SDS011;57138;51.326;-0.068;2023-12-20T06:57:43;30.98;;;3.10;;
69841;SDS011;57138;51.326;-0.068;2023-12-20T07:00:10;13.35;;;2.47;;
69841;SDS011;57138;51.326;-0.068;2023-12-20T07:02:38;26.23;;;3.50;;
69841;SDS011;57138;51.326;-0.068;2023-12-20T07:05:03;26.95;;;3.55;;
69841;SDS011;57138;51.326;-0.068;2023-12-20T07:07:29;28.20;;;4.38;;
69841;SDS011;57138;51.326;-0.068;2023-12-20T07:09:59;32.60;;;2.97;;
69841;SDS011;57138;51.326;-0.068;2023-12-20T07:12:24;40.28;;;4.53;;
69841;SDS011;57138;51.326;-0.068;2023-12-20T07:14:49;25.80;;;3.78;;
69841;SDS011;57138;51.326;-0.068;2023-12-20T07:17:15;27.98;;;3.45;;
69841;SDS011;57138;51.326;-0.068;2023-12-20T07:19:41;36.63;;;4.78;;
69841;SDS011;57138;51.326;-0.068;2023-12-20T07:22:06;27.90;;;2.83;;
69841;SDS011;57138;51.326;-0.068;2023-12-20T07:24:32;19.17;;;3.33;;
69841;SDS011;57138;51.326;-0.068;2023-12-20T07:26:59;20.02;;;2.70;;
69841;SDS011;57138;51.326;-0.068;2023-12-20T07:29:25;28.02;;;4.05;;
69841;SDS011;57138;51.326;-0.068;2023-12-20T07:31:52;27.38;;;3.80;;
69841;SDS011;57138;51.326;-0.068;2023-12-20T07:34:18;27.58;;;3.92;;
69841;SDS011;57138;51.326;-0.068;2023-12-20T07:36:44;29.90;;;3.83;;
69841;SDS011;57138;51.326;-0.068;2023-12-20T07:39:10;34.67;;;3.30;;
69841;SDS011;57138;51.326;-0.068;2023-12-20T07:41:36;22.70;;;2.92;;
69841;SDS011;57138;51.326;-0.068;2023-12-20T07:44:02;28.08;;;3.45;;
69841;SDS011;57138;51.326;-0.068;2023-12-20T07:46:29;21.65;;;3.55;;
69841;SDS011;57138;51.326;-0.068;2023-12-20T07:48:54;28.60;;;4.35;;
69841;SDS011;57138;51.326;-0.068;2023-12-20T07:51:20;27.08;;;3.08;;
69841;SDS011;57138;51.326;-0.068;2023-12-20T07:53:46;22.85;;;3.05;;
69841;SDS011;57138;51.326;-0.068;2023-12-20T07:56:18;36.70;;;4.40;;
69841;SDS011;57138;51.326;-0.068;2023-12-20T07:58:45;30.17;;;4.47;;
69841;SDS011;57138;51.326;-0.068;2023-12-20T08:01:11;28.10;;;3.20;;
69841;SDS011;57138;51.326;-0.068;2023-12-20T08:03:37;43.65;;;5.18;;
69841;SDS011;57138;51.326;-0.068;2023-12-20T08:06:04;26.52;;;3.15;;
69841;SDS011;57138;51.326;-0.068;2023-12-20T08:08:30;32.10;;;4.45;;
69841;SDS011;57138;51.326;-0.068;2023-12-20T08:10:55;38.13;;;4.72;;
69841;SDS011;57138;51.326;-0.068;2023-12-20T08:13:22;21.92;;;2.47;;
69841;SDS011;57138;51.326;-0.068;2023-12-20T08:15:51;22.33;;;2.95;;
69841;SDS011;57138;51.326;-0.068;2023-12-20T08:18:16;25.23;;;4.00;;
69841;SDS011;57138;51.326;-0.068;2023-12-20T08:20:42;25.52;;;3.55;;
69841;SDS011;57138;51.326;-0.068;2023-12-20T08:23:07;27.85;;;3.03;;
69841;SDS011;57138;51.326;-0.068;2023-12-20T08:25:34;18.45;;;2.65;;
69841;SDS011;57138;51.326;-0.068;2023-12-20T08:28:02;28.40;;;5.30;;
69841;SDS011;57138;51.326;-0.068;2023-12-20T08:30:28;25.10;;;3.00;;
69841;SDS011;57138;51.326;-0.068;2023-12-20T08:32:53;28.63;;;4.35;;
69841;SDS011;57138;51.326;-0.068;2023-12-20T08:35:18;31.52;;;3.92;;
69841;SDS011;57138;51.326;-0.068;2023-12-20T08:37:45;25.55;;;3.78;;
69841;SDS011;57138;51.326;-0.068;2023-12-20T08:40:10;24.98;;;3.38;;
69841;SDS011;57138;51.326;-0.068;2023-12-20T08:42:36;19.58;;;2.83;;
69841;SDS011;57138;51.326;-0.068;2023-12-20T08:45:02;37.10;;;4.93;;
69841;SDS011;57138;51.326;-0.068;2023-12-20T08:47:29;32.28;;;3.65;;
69841;SDS011;57138;51.326;-0.068;2023-12-20T08:49:55;27.35;;;4.50;;
69841;SDS011;57138;51.326;-0.068;2023-12-20T08:52:23;33.33;;;4.18;;
69841;SDS011;57138;51.326;-0.068;2023-12-20T08:54:52;22.40;;;3.58;;
69841;SDS011;57138;51.326;-0.068;2023-12-20T08:57:19;23.15;;;3.50;;
69841;SDS011;57138;51.326;-0.068;2023-12-20T08:59:46;25.92;;;3.88;;
69841;SDS011;57138;51.326;-0.068;2023-12-20T09:02:13;29.60;;;3.67;;
69841;SDS011;57138;51.326;-0.068;2023-12-20T09:04:39;29.55;;;3.83;;
69841;SDS011;57138;51.326;-0.068;2023-12-20T09:07:06;29.15;;;3.67;;
69841;SDS011;57138;51.326;-0.068;2023-12-20T09:09:32;23.48;;;3.92;;
69841;SDS011;57138;51.326;-0.068;2023-12-20T09:11:58;18.95;;;3.30;;
69841;SDS011;57138;51.326;-0.068;2023-12-20T09:14:23;35.47;;;5.10;;
69841;SDS011;57138;51.326;-0.068;2023-12-20T09:16:49;27.88;;;5.03;;
69841;SDS011;57138;51.326;-0.068;2023-12-20T09:19:16;23.48;;;3.05;;
69841;SDS011;57138;51.326;-0.068;2023-12-20T09:21:42;28.83;;;3.53;;
69841;SDS011;57138;51.326;-0.068;2023-12-20T09:24:07;27.52;;;3.50;;
69841;SDS011;57138;51.326;-0.068;2023-12-20T09:26:34;24.88;;;3.53;;
69841;SDS011;57138;51.326;-0.068;2023-12-20T09:29:00;32.78;;;4.90;;
69841;SDS011;57138;51.326;-0.068;2023-12-20T09:31:25;27.83;;;4.03;;
69841;SDS011;57138;51.326;-0.068;2023-12-20T09:33:50;25.83;;;5.25;;
69841;SDS011;57138;51.326;-0.068;2023-12-20T09:36:16;22.38;;;3.80;;
69841;SDS011;57138;51.326;-0.068;2023-12-20T09:38:41;26.10;;;4.25;;
69841;SDS011;57138;51.326;-0.068;2023-12-20T09:41:07;35.63;;;5.70;;
69841;SDS011;57138;51.326;-0.068;2023-12-20T09:43:33;28.00;;;3.33;;
69841;SDS011;57138;51.326;-0.068;2023-12-20T09:46:02;22.65;;;3.42;;
69841;SDS011;57138;51.326;-0.068;2023-12-20T09:48:31;27.63;;;4.10;;
69841;SDS011;57138;51.326;-0.068;2023-12-20T09:50:57;23.85;;;3.65;;
69841;SDS011;57138;51.326;-0.068;2023-12-20T09:53:24;25.02;;;3.28;;
69841;SDS011;57138;51.326;-0.068;2023-12-20T09:55:58;27.30;;;3.67;;
69841;SDS011;57138;51.326;-0.068;2023-12-20T09:58:25;21.08;;;2.80;;
69841;SDS011;57138;51.326;-0.068;2023-12-20T10:00:50;22.13;;;3.28;;
69841;SDS011;57138;51.326;-0.068;2023-12-20T10:03:16;23.70;;;3.47;;
69841;SDS011;57138;51.326;-0.068;2023-12-20T10:05:43;25.83;;;3.45;;
69841;SDS011;57138;51.326;-0.068;2023-12-20T10:08:09;26.27;;;3.78;;
69841;SDS011;57138;51.326;-0.068;2023-12-20T10:10:35;25.00;;;4.75;;
69841;SDS011;57138;51.326;-0.068;2023-12-20T10:13:04;25.83;;;3.17;;
69841;SDS011;57138;51.326;-0.068;2023-12-20T10:15:34;31.08;;;3.65;;
69841;SDS011;57138;51.326;-0.068;2023-12-20T10:18:01;19.20;;;3.15;;
69841;SDS011;57138;51.326;-0.068;2023-12-20T10:20:27;19.33;;;3.03;;
69841;SDS011;57138;51.326;-0.068;2023-12-20T10:22:56;22.38;;;3.50;;
69841;SDS011;57138;51.326;-0.068;2023-12-20T10:25:23;19.80;;;2.72;;
69841;SDS011;57138;51.326;-0.068;2023-12-20T10:27:50;20.65;;;2.50;;
69841;SDS011;57138;51.326;-0.068;2023-12-20T10:30:33;18.63;;;2.53;;
69841;SDS011;57138;51.326;-0.068;2023-12-20T10:32:59;12.63;;;2.15;;
69841;SDS011;57138;51.326;-0.068;2023-12-20T10:35:24;15.73;;;2.83;;
69841;SDS011;57138;51.326;-0.068;2023-12-20T10:37:51;8.48;;;1.98;;
69841;SDS011;57138;51.326;-0.068;2023-12-20T10:40:21;14.45;;;2.63;;
69841;SDS011;57138;51.326;-0.068;2023-12-20T10:42:47;17.90;;;3.35;;
69841;SDS011;57138;51.326;-0.068;2023-12-20T10:45:15;17.02;;;2.83;;
69841;SDS011;57138;51.326;-0.068;2023-12-20T10:47:43;15.05;;;1.98;;
69841;SDS011;57138;51.326;-0.068;2023-12-20T10:50:11;14.00;;;2.45;;
69841;SDS011;57138;51.326;-0.068;2023-12-20T10:52:38;17.83;;;3.17;;
69841;SDS011;57138;51.326;-0.068;2023-12-20T10:55:06;11.02;;;2.25;;
69841;SDS011;57138;51.326;-0.068;2023-12-20T10:57:33;17.65;;;2.53;;
69841;SDS011;57138;51.326;-0.068;2023-12-20T11:00:01;18.15;;;2.30;;
69841;SDS011;57138;51.326;-0.068;2023-12-20T11:02:33;16.95;;;2.60;;
69841;SDS011;57138;51.326;-0.068;2023-12-20T11:05:10;15.35;;;2.58;;
69841;SDS011;57138;51.326;-0.068;2023-12-20T11:07:42;11.32;;;2.15;;
69841;SDS011;57138;51.326;-0.068;2023-12-20T11:10:17;16.73;;;2.08;;
69841;SDS011;57138;51.326;-0.068;2023-12-20T11:13:01;11.95;;;2.25;;
69841;SDS011;57138;51.326;-0.068;2023-12-20T11:15:35;14.23;;;2.53;;
69841;SDS011;57138;51.326;-0.068;2023-12-20T11:18:03;18.05;;;1.92;;
69841;SDS011;57138;51.326;-0.068;2023-12-20T11:20:39;19.60;;;4.75;;
69841;SDS011;57138;51.326;-0.068;2023-12-20T11:23:06;13.98;;;2.13;;
69841;SDS011;57138;51.326;-0.068;2023-12-20T11:25:47;13.52;;;1.65;;
69841;SDS011;57138;51.326;-0.068;2023-12-20T11:28:21;13.48;;;2.08;;
69841;SDS011;57138;51.326;-0.068;2023-12-20T11:33:24;10.82;;;1.90;;
69841;SDS011;57138;51.326;-0.068;2023-12-20T11:36:03;15.93;;;2.08;;
69841;SDS011;57138;51.326;-0.068;2023-12-20T11:38:35;14.95;;;2.17;;
69841;SDS011;57138;51.326;-0.068;2023-12-20T11:41:07;13.40;;;2.05;;
69841;SDS011;57138;51.326;-0.068;2023-12-20T11:43:36;15.27;;;2.58;;
69841;SDS011;57138;51.326;-0.068;2023-12-20T11:46:06;13.15;;;1.67;;
69841;SDS011;57138;51.326;-0.068;2023-12-20T11:48:34;13.95;;;3.20;;
69841;SDS011;57138;51.326;-0.068;2023-12-20T11:51:01;23.77;;;2.47;;
69841;SDS011;57138;51.326;-0.068;2023-12-20T11:53:29;16.30;;;1.73;;
69841;SDS011;57138;51.326;-0.068;2023-12-20T11:55:57;8.63;;;1.48;;
69841;SDS011;57138;51.326;-0.068;2023-12-20T11:58:24;13.88;;;2.33;;
69841;SDS011;57138;51.326;-0.068;2023-12-20T12:00:51;11.25;;;2.35;;
69841;SDS011;57138;51.326;-0.068;2023-12-20T12:03:18;14.52;;;1.77;;
69841;SDS011;57138;51.326;-0.068;2023-12-20T12:05:47;12.43;;;1.70;;
69841;SDS011;57138;51.326;-0.068;2023-12-20T12:08:13;11.43;;;1.60;;
69841;SDS011;57138;51.326;-0.068;2023-12-20T12:10:39;8.52;;;1.50;;
69841;SDS011;57138;51.326;-0.068;2023-12-20T12:13:04;13.20;;;1.58;;
69841;SDS011;57138;51.326;-0.068;2023-12-20T12:15:31;10.00;;;1.42;;
69841;SDS011;57138;51.326;-0.068;2023-12-20T12:17:57;8.35;;;1.75;;
69841;SDS011;57138;51.326;-0.068;2023-12-20T12:20:24;11.45;;;1.85;;
69841;SDS011;57138;51.326;-0.068;2023-12-20T12:23:03;10.60;;;1.73;;
69841;SDS011;57138;51.326;-0.068;2023-12-20T12:25:30;15.70;;;2.45;;
69841;SDS011;57138;51.326;-0.068;2023-12-20T12:27:58;7.35;;;1.45;;
69841;SDS011;57138;51.326;-0.068;2023-12-20T12:30:24;9.27;;;1.30;;
69841;SDS011;57138;51.326;-0.068;2023-12-20T12:32:53;11.60;;;1.50;;
69841;SDS011;57138;51.326;-0.068;2023-12-20T12:35:19;13.88;;;1.48;;
69841;SDS011;57138;51.326;-0.068;2023-12-20T12:37:45;6.68;;;1.30;;
69841;SDS011;57138;51.326;-0.068;2023-12-20T12:40:13;8.25;;;1.40;;
69841;SDS011;57138;51.326;-0.068;2023-12-20T12:42:40;20.92;;;2.17;;
69841;SDS011;57138;51.326;-0.068;2023-12-20T12:45:09;10.25;;;1.77;;
69841;SDS011;57138;51.326;-0.068;2023-12-20T12:47:39;7.53;;;1.67;;
69841;SDS011;57138;51.326;-0.068;2023-12-20T12:50:05;11.27;;;1.50;;
69841;SDS011;57138;51.326;-0.068;2023-12-20T12:52:31;8.95;;;2.08;;
69841;SDS011;57138;51.326;-0.068;2023-12-20T12:54:58;9.77;;;1.20;;
69841;SDS011;57138;51.326;-0.068;2023-12-20T12:57:25;9.63;;;1.75;;
69841;SDS011;57138;51.326;-0.068;2023-12-20T12:59:52;4.28;;;1.00;;
69841;SDS011;57138;51.326;-0.068;2023-12-20T13:02:18;5.38;;;1.30;;
69841;SDS011;57138;51.326;-0.068;2023-12-20T13:04:43;5.45;;;1.20;;
69841;SDS011;57138;51.326;-0.068;2023-12-20T13:07:09;10.30;;;1.25;;
69841;SDS011;57138;51.326;-0.068;2023-12-20T13:09:36;11.98;;;1.50;;
69841;SDS011;57138;51.326;-0.068;2023-12-20T13:12:02;5.47;;;1.02;;
69841;SDS011;57138;51.326;-0.068;2023-12-20T13:14:33;7.57;;;1.38;;
69841;SDS011;57138;51.326;-0.068;2023-12-20T13:17:00;8.77;;;1.92;;
69841;SDS011;57138;51.326;-0.068;2023-12-20T13:19:26;6.35;;;1.27;;
69841;SDS011;57138;51.326;-0.068;2023-12-20T13:21:53;8.60;;;1.48;;
69841;SDS011;57138;51.326;-0.068;2023-12-20T13:24:19;8.15;;;1.10;;
69841;SDS011;57138;51.326;-0.068;2023-12-20T13:26:45;8.88;;;1.20;;
69841;SDS011;57138;51.326;-0.068;2023-12-20T13:29:10;8.25;;;1.52;;
69841;SDS011;57138;51.326;-0.068;2023-12-20T13:31:37;5.05;;;1.30;;
69841;SDS011;57138;51.326;-0.068;2023-12-20T13:34:03;10.18;;;1.52;;
69841;SDS011;57138;51.326;-0.068;2023-12-20T13:36:29;7.93;;;1.33;;
69841;SDS011;57138;51.326;-0.068;2023-12-20T13:38:54;5.32;;;1.33;;
69841;SDS011;57138;51.326;-0.068;2023-12-20T13:41:20;3.55;;;1.00;;
69841;SDS011;57138;51.326;-0.068;2023-12-20T13:43:45;5.45;;;1.08;;
69841;SDS011;57138;51.326;-0.068;2023-12-20T13:46:11;8.93;;;1.50;;
69841;SDS011;57138;51.326;-0.068;2023-12-20T13:48:37;5.82;;;1.20;;
69841;SDS011;57138;51.326;-0.068;2023-12-20T13:51:03;7.70;;;2.65;;
69841;SDS011;57138;51.326;-0.068;2023-12-20T13:53:28;6.30;;;1.23;;
69841;SDS011;57138;51.326;-0.068;2023-12-20T13:55:54;7.07;;;1.48;;
69841;SDS011;57138;51.326;-0.068;2023-12-20T13:58:21;4.68;;;1.25;;
69841;SDS011;57138;51.326;-0.068;2023-12-20T14:00:46;6.03;;;1.15;;
69841;SDS011;57138;51.326;-0.068;2023-12-20T14:03:13;5.55;;;1.50;;
69841;SDS011;57138;51.326;-0.068;2023-12-20T14:05:38;7.85;;;1.42;;
69841;SDS011;57138;51.326;-0.068;2023-12-20T14:08:04;9.10;;;1.27;;
69841;SDS011;57138;51.326;-0.068;2023-12-20T14:10:29;8.57;;;1.30;;
69841;SDS011;57138;51.326;-0.068;2023-12-20T14:12:56;6.78;;;1.33;;
69841;SDS011;57138;51.326;-0.068;2023-12-20T14:15:21;8.02;;;2.42;;
69841;SDS011;57138;51.326;-0.068;2023-12-20T14:17:50;6.78;;;1.13;;
69841;SDS011;57138;51.326;-0.068;2023-12-20T14:20:15;5.90;;;1.02;;
69841;SDS011;57138;51.326;-0.068;2023-12-20T14:22:41;9.90;;;1.88;;
69841;SDS011;57138;51.326;-0.068;2023-12-20T14:25:12;5.88;;;1.30;;
69841;SDS011;57138;51.326;-0.068;2023-12-20T14:27:39;5.95;;;1.13;;